QFA185 YPDN-AYPY
Flight info
| Callsign | QFA185 |
|---|---|
| Flight time | N/A |
| Altitude | 37000 |
| Route | RUPEG DCT MASRA B598 ESKIM DCT GUMBU GUMBU1 |
| Aircraft | A339/H-SADE1E2E3GHIJ3J5M1P2RWXY/LB2D1 |
Departure
| Time | N/A |
|---|---|
| Airport | Darwin International Airport / RAAF Darwin (YPDN) |
Arrival
| Time | 2026-04-29 14:43 |
|---|---|
| Airport | Port Moresby Jacksons International Airport (AYPY) |
| Time | Latitude | Longitude | Altitude | Speed | Heading |
|---|---|---|---|---|---|
| 2026-04-29 14:02 | -12.56998 | 131.68947 | 18844 ft | 389 kts | 99° |
| 2026-04-29 14:02 | -12.59411 | 131.79875 | 20256 ft | 399 kts | 107° |
| 2026-04-29 14:02 | -12.62539 | 131.90893 | 21775 ft | 409 kts | 107° |
| 2026-04-29 14:03 | -12.65703 | 132.02078 | 23247 ft | 420 kts | 107° |
| 2026-04-29 14:03 | -12.67499 | 132.13915 | 24525 ft | 433 kts | 79° |
| 2026-04-29 14:03 | -12.60328 | 132.23620 | 25774 ft | 446 kts | 27° |
| 2026-04-29 14:03 | -12.45822 | 132.25264 | 27257 ft | 452 kts | 347° |
| 2026-04-29 14:04 | -12.39514 | 132.24619 | 27852 ft | 458 kts | 358° |
| 2026-04-29 14:04 | -12.33095 | 132.24862 | 28441 ft | 465 kts | 6° |
| 2026-04-29 14:04 | -12.26959 | 132.27018 | 29038 ft | 473 kts | 29° |
| 2026-04-29 14:04 | -12.22058 | 132.31398 | 29672 ft | 477 kts | 52° |
| 2026-04-29 14:05 | -12.19076 | 132.37471 | 30243 ft | 481 kts | 75° |
| 2026-04-29 14:05 | -12.17726 | 132.58436 | 31879 ft | 492 kts | 84° |
| 2026-04-29 14:05 | -12.15556 | 132.73495 | 32897 ft | 500 kts | 81° |
| 2026-04-29 14:05 | -12.12104 | 132.96416 | 33823 ft | 507 kts | 81° |
| 2026-04-29 14:06 | -12.07792 | 133.24790 | 35078 ft | 503 kts | 80° |
| 2026-04-29 14:06 | -12.05026 | 133.43050 | 35925 ft | 502 kts | 80° |
| 2026-04-29 14:06 | -12.02494 | 133.59552 | 36772 ft | 500 kts | 79° |
| 2026-04-29 14:06 | -12.01955 | 133.63059 | 36955 ft | 499 kts | 79° |
| 2026-04-29 14:07 | -11.96944 | 133.95679 | 37117 ft | 507 kts | 79° |
| 2026-04-29 14:07 | -11.92542 | 134.24249 | 36888 ft | 512 kts | 79° |
| 2026-04-29 14:07 | -11.88199 | 134.52935 | 36993 ft | 511 kts | 79° |
| 2026-04-29 14:08 | -11.83094 | 134.86238 | 36996 ft | 513 kts | 79° |
| 2026-04-29 14:08 | -11.78432 | 135.16436 | 36997 ft | 513 kts | 79° |
| 2026-04-29 14:09 | -11.70047 | 135.70214 | 37142 ft | 509 kts | 79° |
| 2026-04-29 14:09 | -11.66876 | 135.90382 | 36982 ft | 513 kts | 79° |
| 2026-04-29 14:09 | -11.62493 | 136.18093 | 37129 ft | 509 kts | 79° |
| 2026-04-29 14:10 | -11.57922 | 136.46795 | 36977 ft | 513 kts | 79° |
| 2026-04-29 14:10 | -11.54933 | 136.65539 | 36958 ft | 513 kts | 79° |
| 2026-04-29 14:10 | -11.50330 | 136.94215 | 36979 ft | 513 kts | 79° |
| 2026-04-29 14:11 | -11.45288 | 137.25420 | 37015 ft | 512 kts | 79° |
| 2026-04-29 14:11 | -11.39910 | 137.58454 | 37002 ft | 511 kts | 79° |
| 2026-04-29 14:12 | -11.36591 | 137.78719 | 36896 ft | 511 kts | 79° |
| 2026-04-29 14:12 | -11.32903 | 138.01150 | 36873 ft | 512 kts | 79° |
| 2026-04-29 14:12 | -11.27055 | 138.36472 | 36995 ft | 511 kts | 79° |
| 2026-04-29 14:13 | -11.20481 | 138.75883 | 36958 ft | 510 kts | 79° |
| 2026-04-29 14:13 | -11.15700 | 139.04335 | 37007 ft | 510 kts | 79° |
| 2026-04-29 14:14 | -11.10876 | 139.32878 | 37010 ft | 510 kts | 79° |
| 2026-04-29 14:14 | -11.05891 | 139.62206 | 36979 ft | 511 kts | 79° |
| 2026-04-29 14:15 | -11.00938 | 139.91159 | 36959 ft | 511 kts | 79° |
| 2026-04-29 14:15 | -10.96048 | 140.19603 | 36990 ft | 508 kts | 79° |
| 2026-04-29 14:16 | -10.88300 | 140.64411 | 36930 ft | 510 kts | 79° |
| 2026-04-29 14:16 | -10.82068 | 141.00175 | 36987 ft | 510 kts | 78° |
| 2026-04-29 14:17 | -10.77080 | 141.28606 | 37100 ft | 510 kts | 78° |
| 2026-04-29 14:17 | -10.74577 | 141.42811 | 36980 ft | 513 kts | 78° |
| 2026-04-29 14:17 | -10.68668 | 141.76203 | 36972 ft | 513 kts | 78° |
| 2026-04-29 14:18 | -10.63011 | 142.07982 | 37055 ft | 510 kts | 78° |
| 2026-04-29 14:18 | -10.57679 | 142.36516 | 36951 ft | 512 kts | 75° |
| 2026-04-29 14:19 | -10.51236 | 142.65065 | 36985 ft | 512 kts | 76° |
| 2026-04-29 14:19 | -10.43545 | 142.99452 | 36954 ft | 511 kts | 76° |
| 2026-04-29 14:20 | -10.35374 | 143.35794 | 36968 ft | 512 kts | 75° |
| 2026-04-29 14:20 | -10.27450 | 143.70675 | 36974 ft | 510 kts | 75° |
| 2026-04-29 14:21 | -10.20212 | 144.02567 | 36985 ft | 511 kts | 75° |
| 2026-04-29 14:21 | -10.13253 | 144.32894 | 36928 ft | 512 kts | 75° |
| 2026-04-29 14:22 | -10.04139 | 144.72313 | 36979 ft | 510 kts | 75° |
| 2026-04-29 14:22 | -9.99704 | 144.91405 | 36386 ft | 517 kts | 75° |
| 2026-04-29 14:22 | -9.98879 | 144.94957 | 36146 ft | 518 kts | 75° |
| 2026-04-29 14:23 | -9.98053 | 144.98507 | 35901 ft | 518 kts | 76° |
| 2026-04-29 14:23 | -9.97230 | 145.02045 | 35664 ft | 519 kts | 76° |
| 2026-04-29 14:23 | -9.96398 | 145.05618 | 35428 ft | 520 kts | 76° |
| 2026-04-29 14:23 | -9.94972 | 145.11739 | 35032 ft | 521 kts | 76° |
| 2026-04-29 14:24 | -9.91622 | 145.26089 | 34119 ft | 523 kts | 76° |
| 2026-04-29 14:24 | -9.88253 | 145.40496 | 33125 ft | 525 kts | 76° |
| 2026-04-29 14:24 | -9.84881 | 145.54891 | 32167 ft | 526 kts | 76° |
| 2026-04-29 14:24 | -9.82195 | 145.66329 | 31671 ft | 527 kts | 76° |
| 2026-04-29 14:25 | -9.80492 | 145.73573 | 31229 ft | 526 kts | 76° |
| 2026-04-29 14:25 | -9.78815 | 145.80708 | 30767 ft | 516 kts | 76° |
| 2026-04-29 14:25 | -9.77027 | 145.87695 | 30303 ft | 510 kts | 70° |
| 2026-04-29 14:25 | -9.73702 | 145.93983 | 29826 ft | 506 kts | 52° |
| 2026-04-29 14:26 | -9.69957 | 145.98537 | 29315 ft | 516 kts | 50° |
| 2026-04-29 14:26 | -9.67640 | 146.01357 | 28924 ft | 521 kts | 50° |
| 2026-04-29 14:26 | -9.63073 | 146.06961 | 28799 ft | 516 kts | 50° |
| 2026-04-29 14:27 | -9.58510 | 146.12553 | 28688 ft | 505 kts | 50° |
| 2026-04-29 14:27 | -9.56294 | 146.15263 | 28036 ft | 493 kts | 50° |
| 2026-04-29 14:28 | -9.51961 | 146.20545 | 25857 ft | 479 kts | 50° |
| 2026-04-29 14:28 | -9.49848 | 146.23125 | 24768 ft | 470 kts | 50° |
| 2026-04-29 14:28 | -9.47793 | 146.25634 | 23724 ft | 462 kts | 50° |
| 2026-04-29 14:28 | -9.45759 | 146.28121 | 22541 ft | 453 kts | 50° |
| 2026-04-29 14:29 | -9.43774 | 146.30565 | 21372 ft | 445 kts | 50° |
| 2026-04-29 14:29 | -9.42479 | 146.32161 | 20680 ft | 438 kts | 50° |
| 2026-04-29 14:29 | -9.39948 | 146.35285 | 19228 ft | 425 kts | 50° |
| 2026-04-29 14:29 | -9.38816 | 146.36941 | 18480 ft | 422 kts | 57° |
| 2026-04-29 14:30 | -9.37530 | 146.39622 | 17586 ft | 422 kts | 67° |
| 2026-04-29 14:30 | -9.36714 | 146.42454 | 16902 ft | 414 kts | 76° |
| 2026-04-29 14:30 | -9.36125 | 146.45270 | 16230 ft | 404 kts | 76° |
| 2026-04-29 14:30 | -9.35533 | 146.47982 | 15521 ft | 396 kts | 76° |
| 2026-04-29 14:31 | -9.34932 | 146.50674 | 14910 ft | 386 kts | 75° |
| 2026-04-29 14:31 | -9.34345 | 146.53267 | 14265 ft | 379 kts | 76° |
| 2026-04-29 14:31 | -9.33746 | 146.55887 | 13621 ft | 372 kts | 75° |
| 2026-04-29 14:31 | -9.33166 | 146.58423 | 12977 ft | 364 kts | 76° |
| 2026-04-29 14:32 | -9.32606 | 146.60890 | 12386 ft | 355 kts | 76° |
| 2026-04-29 14:32 | -9.32054 | 146.63314 | 11794 ft | 360 kts | 76° |
| 2026-04-29 14:32 | -9.31475 | 146.65872 | 11324 ft | 379 kts | 76° |
| 2026-04-29 14:32 | -9.30888 | 146.68474 | 10910 ft | 377 kts | 76° |
| 2026-04-29 14:33 | -9.30317 | 146.71011 | 10549 ft | 369 kts | 77° |
| 2026-04-29 14:33 | -9.29762 | 146.73480 | 10349 ft | 349 kts | 77° |
| 2026-04-29 14:33 | -9.29240 | 146.75804 | 10167 ft | 328 kts | 77° |
| 2026-04-29 14:33 | -9.28750 | 146.77986 | 9999 ft | 308 kts | 77° |
| 2026-04-29 14:34 | -9.28288 | 146.80053 | 9590 ft | 297 kts | 77° |
| 2026-04-29 14:34 | -9.27839 | 146.82071 | 9043 ft | 292 kts | 77° |
| 2026-04-29 14:34 | -9.27404 | 146.84026 | 8636 ft | 282 kts | 77° |
| 2026-04-29 14:34 | -9.26980 | 146.85924 | 8269 ft | 271 kts | 77° |
| 2026-04-29 14:35 | -9.26571 | 146.87746 | 7936 ft | 260 kts | 77° |
| 2026-04-29 14:35 | -9.26173 | 146.89508 | 7600 ft | 254 kts | 77° |
| 2026-04-29 14:35 | -9.25752 | 146.91386 | 7298 ft | 290 kts | 78° |
| 2026-04-29 14:35 | -9.25306 | 146.93399 | 7248 ft | 292 kts | 78° |
| 2026-04-29 14:36 | -9.24868 | 146.95360 | 7122 ft | 285 kts | 78° |
| 2026-04-29 14:36 | -9.24397 | 146.97287 | 6644 ft | 282 kts | 73° |
| 2026-04-29 14:36 | -9.23627 | 146.99124 | 5868 ft | 286 kts | 62° |
| 2026-04-29 14:36 | -9.22556 | 147.00825 | 5078 ft | 289 kts | 58° |
| 2026-04-29 14:37 | -9.21451 | 147.02540 | 4279 ft | 291 kts | 58° |
| 2026-04-29 14:37 | -9.20473 | 147.04323 | 3456 ft | 289 kts | 72° |
| 2026-04-29 14:37 | -9.20340 | 147.06286 | 3077 ft | 271 kts | 102° |
| 2026-04-29 14:37 | -9.21164 | 147.07895 | 2972 ft | 260 kts | 134° |
| 2026-04-29 14:38 | -9.22651 | 147.08927 | 2891 ft | 260 kts | 152° |
| 2026-04-29 14:38 | -9.24261 | 147.09765 | 2777 ft | 259 kts | 151° |
| 2026-04-29 14:38 | -9.25813 | 147.10665 | 2676 ft | 259 kts | 148° |
| 2026-04-29 14:38 | -9.27335 | 147.11619 | 2569 ft | 251 kts | 148° |
| 2026-04-29 14:39 | -9.28774 | 147.12502 | 2463 ft | 233 kts | 148° |
| 2026-04-29 14:39 | -9.30100 | 147.13330 | 2462 ft | 215 kts | 148° |
| 2026-04-29 14:39 | -9.31380 | 147.14122 | 2459 ft | 218 kts | 148° |
| 2026-04-29 14:39 | -9.32631 | 147.14898 | 2448 ft | 202 kts | 148° |
| 2026-04-29 14:40 | -9.33797 | 147.15620 | 2203 ft | 193 kts | 148° |
| 2026-04-29 14:40 | -9.34923 | 147.16320 | 1940 ft | 187 kts | 148° |
| 2026-04-29 14:40 | -9.36015 | 147.16998 | 1699 ft | 181 kts | 148° |
| 2026-04-29 14:40 | -9.37049 | 147.17647 | 1480 ft | 169 kts | 147° |
| 2026-04-29 14:41 | -9.38000 | 147.18234 | 1275 ft | 154 kts | 148° |
| 2026-04-29 14:41 | -9.38866 | 147.18773 | 1055 ft | 138 kts | 148° |
| 2026-04-29 14:41 | -9.39694 | 147.19285 | 889 ft | 140 kts | 148° |
| 2026-04-29 14:41 | -9.40499 | 147.19788 | 681 ft | 138 kts | 147° |
| 2026-04-29 14:42 | -9.41290 | 147.20297 | 509 ft | 129 kts | 148° |
| 2026-04-29 14:42 | -9.42091 | 147.20782 | 384 ft | 137 kts | 149° |
| 2026-04-29 14:42 | -9.42890 | 147.21262 | 173 ft | 134 kts | 149° |
| 2026-04-29 14:42 | -9.43668 | 147.21727 | 110 ft | 104 kts | 148° |
| 2026-04-29 14:43 | -9.44096 | 147.22007 | 119 ft | 61 kts | 146° |
| 2026-04-29 14:43 | -9.44341 | 147.22165 | 120 ft | 25 kts | 147° |
| 2026-04-29 14:43 | -9.44498 | 147.22196 | 121 ft | 22 kts | 212° |
| 2026-04-29 14:43 | -9.44549 | 147.22083 | 124 ft | 16 kts | 242° |
| 2026-04-29 14:44 | -9.44605 | 147.21989 | 127 ft | 15 kts | 235° |
| 2026-04-29 14:44 | -9.44668 | 147.21899 | 125 ft | 16 kts | 237° |
| 2026-04-29 14:44 | -9.44720 | 147.21792 | 127 ft | 10 kts | 247° |
| 2026-04-29 14:44 | -9.44721 | 147.21789 | 127 ft | 0 kts | 247° |